Dades de l'estació automàtica Aldover

?
?
Resum diari 22:30 TU
Dades diàries de l'estació meteorològica
Temperatura mitjana 21.8 °C
Temperatura màxima 32.1 °C 13:10 TU
Temperatura mínima 14.6 °C 5:44 TU
Humitat relativa mitjana 71%
Precipitació acumulada 0.0 mm
Ratxa màxima del vent (2 m) 13.0 km/h - 210º 13:18 TU
Irradiació solar global 14.3 MJ/m2

El tram horari està expressat en Temps Universal (TU). Cal sumar una hora en horari d'hivern i dues en horari d'estiu per passar a l'hora oficial.

Aldover

Metadades estació meteorol´gica
Municipi Aldover
Comarca Baix Ebre
Altitud 52 m
Data alta 31.12.1994
Estat actual Operativa
Dades de període
Període
TU
TM
°C
TX
°C
TN
°C
HRM
%
PPT
mm
VVM (2 m)
km/h
DVM (2 m)
graus
VVX (2 m)
km/h
RS
W/m2
00:00 - 00:30 16.6 16.8 16.5 93 0.0 0.0 286 1.4 0
00:30 - 01:00 16.3 16.4 16.2 94 0.0 0.4 308 3.6 0
01:00 - 01:30 15.9 16.2 15.6 93 0.0 0.4 358 2.5 0
01:30 - 02:00 15.8 16.0 15.6 95 0.0 0.7 353 4.0 0
02:00 - 02:30 15.7 16.0 15.5 94 0.0 0.7 318 3.6 0
02:30 - 03:00 15.7 16.0 15.2 93 0.0 0.4 5 2.9 0
03:00 - 03:30 15.1 15.2 15.0 96 0.0 0.4 288 2.9 0
03:30 - 04:00 15.0 15.1 14.8 96 0.0 0.7 10 4.0 0
04:00 - 04:30 15.1 15.4 14.8 97 0.0 1.4 354 6.1 0
04:30 - 05:00 15.4 15.5 15.3 94 0.0 0.7 352 4.3 0
05:00 - 05:30 15.4 15.6 15.2 92 0.0 1.8 342 5.8 0
05:30 - 06:00 14.9 15.3 14.6 95 0.0 0.7 351 4.0 2
06:00 - 06:30 15.3 15.8 15.0 94 0.0 1.1 338 5.0 43
06:30 - 07:00 16.3 17.2 15.8 92 0.0 1.4 335 5.8 129
07:00 - 07:30 18.1 19.1 17.3 83 0.0 1.1 9 7.2 217
07:30 - 08:00 19.8 21.2 19.1 75 0.0 0.7 21 3.2 334
08:00 - 08:30 21.3 21.9 20.9 69 0.0 1.4 121 6.8 340
08:30 - 09:00 21.9 22.3 21.4 69 0.0 1.8 7 6.1 299
09:00 - 09:30 22.7 23.1 22.4 66 0.0 2.2 12 9.0 238
09:30 - 10:00 23.5 23.7 23.2 60 0.0 2.5 14 6.1 270
10:00 - 10:30 25.0 25.7 23.7 56 0.0 2.5 10 8.3 451
10:30 - 11:00 25.8 26.2 25.5 48 0.0 1.1 357 5.4 231
11:00 - 11:30 27.4 28.3 26.2 40 0.0 1.8 138 9.4 663
11:30 - 12:00 28.9 29.8 28.3 38 0.0 2.5 137 10.8 876
12:00 - 12:30 30.9 31.6 29.7 33 0.0 1.4 168 9.7 850
12:30 - 13:00 31.0 31.9 30.4 34 0.0 1.8 173 10.4 712
13:00 - 13:30 30.8 32.1 29.3 36 0.0 1.8 214 13.0 470
13:30 - 14:00 28.5 29.5 27.6 45 0.0 1.4 161 11.9 168
14:00 - 14:30 26.8 28.0 26.1 53 0.0 2.2 166 9.0 183
14:30 - 15:00 26.2 26.7 25.9 57 0.0 2.2 166 11.9 318
15:00 - 15:30 26.6 27.4 26.1 53 0.0 4.0 122 11.2 462
15:30 - 16:00 27.0 28.1 26.4 52 0.0 2.2 133 8.6 347
16:00 - 16:30 26.9 27.9 26.2 59 0.0 2.2 149 9.0 232
16:30 - 17:00 26.3 26.9 25.5 52 0.0 1.1 149 7.9 101
17:00 - 17:30 25.0 25.5 24.5 58 0.0 1.1 157 6.5 22
17:30 - 18:00 24.3 24.4 24.0 65 0.0 0.4 145 3.6 4
18:00 - 18:30 23.4 24.0 23.0 68 0.0 0.7 115 3.2 0
18:30 - 19:00 22.6 23.0 22.5 71 0.0 0.4 301 4.0 0
19:00 - 19:30 22.6 22.9 22.1 73 0.0 1.4 346 6.8 0
19:30 - 20:00 22.1 22.4 21.7 73 0.0 1.4 321 5.0 0
20:00 - 20:30 21.4 21.7 21.1 77 0.0 0.7 351 4.0 0
20:30 - 21:00 21.2 21.6 21.0 78 0.0 0.4 349 2.5 0
21:00 - 21:30 21.6 21.7 21.5 75 0.0 1.4 352 5.8 0
21:30 - 22:00 21.3 21.4 21.2 75 0.0 1.4 292 5.8 0
22:00 - 22:30 21.0 21.3 20.6 77 0.0 0.7 9 6.1 0
22:30 - 23:00 20.4 21.0 19.8 81 0.0 0.4 92 4.3 0

Les dades en taronja només han passat un control de qualitat automàtic. Resta pendent la seva validació definitiva.